Time;durP1;ratioP1;P1;durP2;ratioP2;P2;SDS_P1;SDS_P2;PMS_P1;PMS_P2;Temp;Humidity;BMP_temperature;BMP_pressure;BME280_temperature;BME280_humidity;BME280_pressure;Samples;Min_cycle;Max_cycle;Signal;HPM_P1;HPM_P2
2022/06/14 00:03:20;;;;;;;0.20;0.20;;;;;;;;;;5032546;28;20075;-72
2022/06/14 00:05:49;;;;;;;0.08;0.08;;;;;;;;;;5032957;28;20459;-72
2022/06/14 00:08:19;;;;;;;0.00;0.00;;;;;;;;;;5032299;28;20128;-72
2022/06/14 00:10:48;;;;;;;0.17;0.17;;;;;;;;;;5035991;28;20073;-73
2022/06/14 00:13:17;;;;;;;0.20;0.20;;;;;;;;;;5052524;28;20060;-72
2022/06/14 00:15:46;;;;;;;0.20;0.20;;;;;;;;;;5035468;28;20452;-72
2022/06/14 00:18:15;;;;;;;0.47;0.47;;;;;;;;;;5032408;28;20084;-72
2022/06/14 00:20:44;;;;;;;0.00;0.00;;;;;;;;;;5040774;28;20663;-73
2022/06/14 00:23:12;;;;;;;0.00;0.00;;;;;;;;;;5052146;28;20045;-73
2022/06/14 00:25:43;;;;;;;0.10;0.10;;;;;;;;;;5052720;28;20076;-73
2022/06/14 00:28:14;;;;;;;0.08;0.08;;;;;;;;;;5031573;28;20065;-72
2022/06/14 00:30:44;;;;;;;0.10;0.10;;;;;;;;;;5032270;28;20064;-73
2022/06/14 00:33:12;;;;;;;0.00;0.00;;;;;;;;;;5032635;28;20077;-72
2022/06/14 00:35:40;;;;;;;0.00;0.00;;;;;;;;;;5035288;28;20091;-72
2022/06/14 00:38:10;;;;;;;0.00;0.00;;;;;;;;;;5054236;28;20160;-72
2022/06/14 00:40:40;;;;;;;0.20;0.20;;;;;;;;;;5070512;28;20088;-73
2022/06/14 00:43:15;;;;;;;0.00;0.00;;;;;;;;;;5051868;28;20084;-73
2022/06/14 00:46:04;;;;;;;0.00;0.00;;;;;;;;;;5051754;28;20127;-73
2022/06/14 00:48:34;;;;;;;0.10;0.10;;;;;;;;;;5043436;28;20045;-73
2022/06/14 00:51:06;;;;;;;0.00;0.00;;;;;;;;;;5036242;28;20149;-72
2022/06/14 00:53:37;;;;;;;0.00;0.00;;;;;;;;;;5050796;28;20053;-72
2022/06/14 00:56:08;;;;;;;0.00;0.00;;;;;;;;;;5051023;28;20103;-73
2022/06/14 00:58:40;;;;;;;0.00;0.00;;;;;;;;;;5050461;28;20454;-73
2022/06/14 01:01:12;;;;;;;0.10;0.10;;;;;;;;;;5050974;28;20080;-72
2022/06/14 01:03:42;;;;;;;0.00;0.00;;;;;;;;;;5050188;28;20452;-73
2022/06/14 01:06:12;;;;;;;0.10;0.10;;;;;;;;;;5024880;28;20541;-73
2022/06/14 01:08:43;;;;;;;0.00;0.00;;;;;;;;;;5010356;28;20133;-73
2022/06/14 01:11:14;;;;;;;0.10;0.10;;;;;;;;;;5017668;28;20112;-73
2022/06/14 01:13:44;;;;;;;0.00;0.00;;;;;;;;;;5030889;28;20042;-73
2022/06/14 01:16:12;;;;;;;0.10;0.10;;;;;;;;;;5030554;28;20144;-72
2022/06/14 01:18:41;;;;;;;0.00;0.00;;;;;;;;;;5029912;28;20462;-73
2022/06/14 01:21:09;;;;;;;0.00;0.00;;;;;;;;;;5030349;28;20128;-73
2022/06/14 01:23:39;;;;;;;0.10;0.10;;;;;;;;;;5014219;28;20129;-72
2022/06/14 01:26:13;;;;;;;0.00;0.00;;;;;;;;;;5010792;28;20089;-72
2022/06/14 01:28:43;;;;;;;0.10;0.10;;;;;;;;;;5010585;28;20041;-72
2022/06/14 01:31:12;;;;;;;0.00;0.00;;;;;;;;;;5015070;28;20147;-72
2022/06/14 01:33:42;;;;;;;0.00;0.00;;;;;;;;;;5030399;28;20088;-72
2022/06/14 01:36:12;;;;;;;0.08;0.08;;;;;;;;;;5030417;28;20076;-72
2022/06/14 01:38:44;;;;;;;0.15;0.15;;;;;;;;;;5028615;28;20042;-71
2022/06/14 01:41:18;;;;;;;0.22;0.22;;;;;;;;;;5009469;28;20085;-72
2022/06/14 01:43:56;;;;;;;0.00;0.00;;;;;;;;;;5010629;28;20060;-72
2022/06/14 01:46:26;;;;;;;0.00;0.00;;;;;;;;;;5011000;28;20057;-72
2022/06/14 01:51:50;;;;;;;0.00;0.00;;;;;;;;;;5010351;28;20049;-72
2022/06/14 01:51:53;;;;;;;0.10;0.10;;;;;;;;;;5021432;28;20081;-72
2022/06/14 01:54:26;;;;;;;0.10;0.10;;;;;;;;;;5024719;28;1123926;-72
2022/06/14 01:56:59;;;;;;;0.00;0.00;;;;;;;;;;5049215;28;20124;-72
2022/06/14 01:59:31;;;;;;;0.00;0.00;;;;;;;;;;5030900;28;20524;-72
2022/06/14 02:02:02;;;;;;;0.10;0.10;;;;;;;;;;5031037;28;20056;-72
2022/06/14 02:04:37;;;;;;;0.08;0.08;;;;;;;;;;5031198;28;20046;-72
2022/06/14 02:07:07;;;;;;;0.35;0.35;;;;;;;;;;5030553;28;20052;-72
2022/06/14 02:09:44;;;;;;;0.35;0.35;;;;;;;;;;5030777;28;20448;-72
2022/06/14 02:12:14;;;;;;;0.00;0.00;;;;;;;;;;5046091;28;20153;-72
2022/06/14 02:14:47;;;;;;;0.00;0.00;;;;;;;;;;5033314;28;20573;-72
2022/06/14 02:17:19;;;;;;;0.00;0.00;;;;;;;;;;5030774;28;20128;-72
2022/06/14 02:19:50;;;;;;;0.03;0.03;;;;;;;;;;5030909;28;20089;-72
2022/06/14 02:22:20;;;;;;;0.35;0.35;;;;;;;;;;5030977;28;20464;-72
2022/06/14 02:24:52;;;;;;;0.20;0.20;;;;;;;;;;5030595;28;20524;-72
2022/06/14 02:27:22;;;;;;;0.17;0.17;;;;;;;;;;5029864;28;20108;-72
2022/06/14 02:29:53;;;;;;;0.00;0.00;;;;;;;;;;5031288;28;20516;-72
2022/06/14 02:32:24;;;;;;;0.25;0.25;;;;;;;;;;5030845;28;20085;-72
2022/06/14 02:34:55;;;;;;;0.00;0.00;;;;;;;;;;5031043;28;20041;-72
2022/06/14 02:37:26;;;;;;;0.10;0.10;;;;;;;;;;5030177;28;20049;-72
2022/06/14 02:39:57;;;;;;;0.00;0.00;;;;;;;;;;5030156;28;20136;-72
2022/06/14 02:42:29;;;;;;;0.30;0.30;;;;;;;;;;5030788;28;20097;-72
2022/06/14 02:45:02;;;;;;;0.00;0.00;;;;;;;;;;5030386;28;20107;-71
2022/06/14 02:47:34;;;;;;;0.03;0.03;;;;;;;;;;5030409;28;20084;-71
2022/06/14 02:50:05;;;;;;;0.55;0.55;;;;;;;;;;5030528;28;20045;-72
2022/06/14 02:52:37;;;;;;;0.20;0.20;;;;;;;;;;5050148;28;20386;-71
2022/06/14 02:55:09;;;;;;;0.00;0.00;;;;;;;;;;5053527;28;20540;-72
2022/06/14 02:57:40;;;;;;;0.22;0.22;;;;;;;;;;5054027;28;20107;-71
2022/06/14 03:00:10;;;;;;;0.10;0.10;;;;;;;;;;5053757;28;20089;-71
2022/06/14 03:02:41;;;;;;;0.00;0.00;;;;;;;;;;5053770;28;20049;-71
2022/06/14 03:05:12;;;;;;;0.10;0.10;;;;;;;;;;5028113;28;20132;-72
2022/06/14 03:07:45;;;;;;;0.00;0.00;;;;;;;;;;5013240;28;20533;-71
2022/06/14 03:10:15;;;;;;;0.10;0.10;;;;;;;;;;5013640;28;20540;-71
2022/06/14 03:12:45;;;;;;;0.08;0.08;;;;;;;;;;5033115;28;20084;-71
2022/06/14 03:15:16;;;;;;;0.25;0.25;;;;;;;;;;5033371;28;20084;-71
2022/06/14 03:17:51;;;;;;;0.10;0.10;;;;;;;;;;5033286;28;20508;-71
2022/06/14 03:20:27;;;;;;;0.10;0.10;;;;;;;;;;5033424;28;20092;-71
2022/06/14 03:22:57;;;;;;;0.00;0.00;;;;;;;;;;5014394;28;20132;-71
2022/06/14 03:25:31;;;;;;;0.00;0.00;;;;;;;;;;5013329;28;20489;-72
2022/06/14 03:28:03;;;;;;;1.08;0.98;;;;;;;;;;5012732;28;20476;-71
2022/06/14 03:30:35;;;;;;;0.10;0.10;;;;;;;;;;5013627;28;20133;-71
2022/06/14 03:33:06;;;;;;;2.40;0.80;;;;;;;;;;5013372;28;20165;-71
2022/06/14 03:35:38;;;;;;;0.10;0.10;;;;;;;;;;5013706;28;20050;-71
2022/06/14 03:38:10;;;;;;;0.10;0.10;;;;;;;;;;5012772;28;20049;-71
2022/06/14 03:40:42;;;;;;;0.10;0.10;;;;;;;;;;5023045;28;20408;-71
2022/06/14 03:43:10;;;;;;;0.10;0.10;;;;;;;;;;5034979;28;20076;-71
2022/06/14 03:45:44;;;;;;;0.10;0.10;;;;;;;;;;5033268;28;20052;-71
2022/06/14 03:48:13;;;;;;;0.10;0.10;;;;;;;;;;5032719;28;20140;-71
2022/06/14 03:50:47;;;;;;;0.00;0.00;;;;;;;;;;5034375;28;20559;-71
2022/06/14 03:53:23;;;;;;;0.10;0.10;;;;;;;;;;5060274;28;20056;-71
2022/06/14 03:56:07;;;;;;;0.10;0.10;;;;;;;;;;5052478;28;20048;-71
2022/06/14 03:58:44;;;;;;;0.50;0.50;;;;;;;;;;5032656;28;20144;-71
2022/06/14 04:01:14;;;;;;;0.30;0.30;;;;;;;;;;5032724;28;20148;-71
2022/06/14 04:03:50;;;;;;;0.10;0.10;;;;;;;;;;5031424;28;20049;-72
2022/06/14 04:06:23;;;;;;;0.00;0.00;;;;;;;;;;5032413;28;20045;-71
2022/06/14 04:08:57;;;;;;;0.13;0.13;;;;;;;;;;5032122;28;20528;-71
2022/06/14 04:11:34;;;;;;;0.10;0.10;;;;;;;;;;5041025;28;20057;-71
2022/06/14 04:14:09;;;;;;;0.00;0.00;;;;;;;;;;5032656;28;20077;-71
2022/06/14 04:16:46;;;;;;;0.35;0.35;;;;;;;;;;5031382;28;20128;-71
2022/06/14 04:19:22;;;;;;;0.00;0.00;;;;;;;;;;5032601;28;20081;-71
2022/06/14 04:21:54;;;;;;;0.10;0.10;;;;;;;;;;5032315;28;20128;-71
2022/06/14 04:24:32;;;;;;;0.10;0.10;;;;;;;;;;5032166;28;20077;-71
2022/06/14 04:27:07;;;;;;;0.85;0.82;;;;;;;;;;5031485;28;20081;-71
2022/06/14 04:29:37;;;;;;;0.15;0.15;;;;;;;;;;5032200;28;20068;-71
2022/06/14 04:32:10;;;;;;;0.00;0.00;;;;;;;;;;5040214;28;20084;-71
2022/06/14 04:34:46;;;;;;;0.00;0.00;;;;;;;;;;5051781;28;20551;-71
2022/06/14 04:37:17;;;;;;;0.10;0.10;;;;;;;;;;5051565;28;20099;-71
2022/06/14 04:39:47;;;;;;;0.17;0.17;;;;;;;;;;5051638;28;20085;-71
2022/06/14 04:42:18;;;;;;;0.00;0.00;;;;;;;;;;5051595;28;20110;-71
2022/06/14 04:44:49;;;;;;;0.45;0.45;;;;;;;;;;5052169;28;20140;-71
2022/06/14 04:47:19;;;;;;;0.10;0.10;;;;;;;;;;5030866;28;20067;-71
2022/06/14 04:49:49;;;;;;;0.10;0.10;;;;;;;;;;5032066;28;20052;-71
2022/06/14 04:52:20;;;;;;;0.25;0.25;;;;;;;;;;5054273;28;20563;-71
2022/06/14 04:54:51;;;;;;;0.00;0.00;;;;;;;;;;5071671;28;20095;-72
2022/06/14 04:57:23;;;;;;;0.10;0.10;;;;;;;;;;5071038;28;20141;-71
2022/06/14 04:59:52;;;;;;;0.43;0.43;;;;;;;;;;5071506;28;20091;-71
2022/06/14 05:02:23;;;;;;;0.05;0.05;;;;;;;;;;5071516;28;20067;-71
2022/06/14 05:04:53;;;;;;;0.10;0.10;;;;;;;;;;5034579;28;20049;-71
2022/06/14 05:07:24;;;;;;;0.10;0.10;;;;;;;;;;5031307;28;20049;-71
2022/06/14 05:09:56;;;;;;;0.10;0.10;;;;;;;;;;5031172;28;20077;-71
2022/06/14 05:12:29;;;;;;;0.00;0.00;;;;;;;;;;5048370;28;20092;-72
2022/06/14 05:14:59;;;;;;;0.00;0.00;;;;;;;;;;5050971;28;20045;-71
2022/06/14 05:17:31;;;;;;;0.10;0.10;;;;;;;;;;5051202;28;20045;-71
2022/06/14 05:20:01;;;;;;;1.75;1.23;;;;;;;;;;5047666;28;20143;-71
2022/06/14 05:22:33;;;;;;;0.00;0.00;;;;;;;;;;5031524;28;20053;-71
2022/06/14 05:25:02;;;;;;;0.00;0.00;;;;;;;;;;5031044;28;20057;-71
2022/06/14 05:27:37;;;;;;;0.63;0.63;;;;;;;;;;5030133;28;20049;-71
2022/06/14 05:30:06;;;;;;;;;;;;;;;;;;5029274;28;20479;-72
2022/06/14 05:32:39;;;;;;;0.10;0.10;;;;;;;;;;5030028;28;20378;-71
2022/06/14 05:35:13;;;;;;;0.10;0.10;;;;;;;;;;5041207;28;20080;-71
2022/06/14 05:37:44;;;;;;;0.00;0.00;;;;;;;;;;5051816;28;20124;-71
2022/06/14 05:40:15;;;;;;;0.00;0.00;;;;;;;;;;5037401;28;20396;-71
2022/06/14 05:42:48;;;;;;;0.00;0.00;;;;;;;;;;5050359;28;20052;-71
2022/06/14 05:45:18;;;;;;;0.10;0.10;;;;;;;;;;5050935;28;20048;-71
2022/06/14 05:47:48;;;;;;;0.10;0.10;;;;;;;;;;5050583;28;20128;-71
2022/06/14 05:50:19;;;;;;;0.15;0.15;;;;;;;;;;5050481;28;20575;-71
2022/06/14 05:52:51;;;;;;;0.00;0.00;;;;;;;;;;5052475;28;20111;-71
2022/06/14 05:55:22;;;;;;;0.63;0.35;;;;;;;;;;5036567;28;20089;-71
2022/06/14 05:57:54;;;;;;;0.00;0.00;;;;;;;;;;5030631;28;20049;-71
2022/06/14 06:00:24;;;;;;;0.10;0.10;;;;;;;;;;5030599;28;20136;-71
2022/06/14 06:02:55;;;;;;;2.20;1.38;;;;;;;;;;5030629;28;20050;-71
2022/06/14 06:05:26;;;;;;;0.00;0.00;;;;;;;;;;5030843;28;20053;-71
2022/06/14 06:07:57;;;;;;;0.25;0.25;;;;;;;;;;5030068;28;20096;-71
2022/06/14 06:10:27;;;;;;;0.00;0.00;;;;;;;;;;5031198;28;20045;-71
2022/06/14 06:12:59;;;;;;;0.28;0.28;;;;;;;;;;5031388;28;20140;-72
2022/06/14 06:15:37;;;;;;;0.65;0.65;;;;;;;;;;5030730;28;20042;-71
2022/06/14 06:18:07;;;;;;;0.10;0.10;;;;;;;;;;5030227;28;20072;-71
2022/06/14 06:20:38;;;;;;;0.00;0.00;;;;;;;;;;5030738;28;20051;-71
2022/06/14 06:23:08;;;;;;;0.10;0.10;;;;;;;;;;5030658;28;20141;-71
2022/06/14 06:25:39;;;;;;;0.30;0.30;;;;;;;;;;5031107;28;20091;-71
2022/06/14 06:28:11;;;;;;;0.10;0.10;;;;;;;;;;5033406;28;20120;-71
2022/06/14 06:30:41;;;;;;;0.00;0.00;;;;;;;;;;5034508;28;20049;-71
2022/06/14 06:33:15;;;;;;;0.00;0.00;;;;;;;;;;5034274;28;20060;-71
2022/06/14 06:35:47;;;;;;;0.00;0.00;;;;;;;;;;5033952;28;20140;-71
2022/06/14 06:38:22;;;;;;;0.10;0.10;;;;;;;;;;5033782;28;20093;-71
2022/06/14 06:43:47;;;;;;;0.10;0.10;;;;;;;;;;5054162;28;20508;-71
2022/06/14 06:46:17;;;;;;;0.10;0.10;;;;;;;;;;5039885;28;20049;-71
2022/06/14 06:48:52;;;;;;;0.00;0.00;;;;;;;;;;5033761;28;20049;-71
2022/06/14 06:51:22;;;;;;;0.00;0.00;;;;;;;;;;5048119;28;20076;-71
2022/06/14 06:53:53;;;;;;;0.00;0.00;;;;;;;;;;5074022;28;20099;-72
2022/06/14 06:56:23;;;;;;;0.00;0.00;;;;;;;;;;5073655;28;20091;-71
2022/06/14 06:58:55;;;;;;;0.10;0.10;;;;;;;;;;5073726;28;20135;-71
2022/06/14 07:01:25;;;;;;;0.00;0.00;;;;;;;;;;5073662;28;20052;-71
2022/06/14 07:03:56;;;;;;;0.00;0.00;;;;;;;;;;5036144;28;20100;-71
2022/06/14 07:06:27;;;;;;;0.00;0.00;;;;;;;;;;5033710;28;20057;-71
2022/06/14 07:08:58;;;;;;;0.00;0.00;;;;;;;;;;5033495;28;20053;-71
2022/06/14 07:11:30;;;;;;;0.10;0.10;;;;;;;;;;5042203;28;20562;-72
2022/06/14 07:14:02;;;;;;;0.00;0.00;;;;;;;;;;5054053;28;20056;-72
2022/06/14 07:16:32;;;;;;;0.03;0.03;;;;;;;;;;5053511;28;20493;-71
2022/06/14 07:19:08;;;;;;;0.00;0.00;;;;;;;;;;5049659;28;20080;-71
2022/06/14 07:21:41;;;;;;;0.00;0.00;;;;;;;;;;5033966;28;20119;-71
2022/06/14 07:24:12;;;;;;;0.08;0.08;;;;;;;;;;5033704;28;20046;-71
2022/06/14 07:26:45;;;;;;;0.03;0.03;;;;;;;;;;5032590;28;20580;-72
2022/06/14 07:29:17;;;;;;;0.28;0.28;;;;;;;;;;5033305;28;20107;-71
2022/06/14 07:31:48;;;;;;;0.05;0.05;;;;;;;;;;5033824;28;20049;-71
2022/06/14 07:34:17;;;;;;;0.20;0.20;;;;;;;;;;5051114;28;20053;-71
2022/06/14 07:36:52;;;;;;;0.05;0.05;;;;;;;;;;5041871;28;20050;-72
2022/06/14 07:39:22;;;;;;;0.50;0.45;;;;;;;;;;5033292;28;20107;-72
2022/06/14 07:41:54;;;;;;;0.00;0.00;;;;;;;;;;5046879;28;20063;-72
2022/06/14 07:44:29;;;;;;;0.00;0.00;;;;;;;;;;5052927;28;20045;-72
2022/06/14 07:47:01;;;;;;;0.00;0.00;;;;;;;;;;5052138;28;20045;-72
2022/06/14 07:49:34;;;;;;;0.15;0.15;;;;;;;;;;5052685;28;20049;-72
2022/06/14 07:52:07;;;;;;;0.35;0.35;;;;;;;;;;5056205;28;20037;-71
2022/06/14 07:54:37;;;;;;;0.00;0.00;;;;;;;;;;5039501;28;20057;-71
2022/06/14 07:57:09;;;;;;;0.00;0.00;;;;;;;;;;5032369;28;20046;-71
2022/06/14 07:59:42;;;;;;;0.00;0.00;;;;;;;;;;5032630;28;20493;-71
2022/06/14 08:02:16;;;;;;;0.80;0.80;;;;;;;;;;5032434;28;20132;-71
2022/06/14 08:04:46;;;;;;;0.03;0.03;;;;;;;;;;5032295;28;20054;-71
2022/06/14 08:07:17;;;;;;;0.00;0.00;;;;;;;;;;5031781;28;20053;-71
2022/06/14 08:09:50;;;;;;;0.10;0.10;;;;;;;;;;5032088;28;20135;-71
2022/06/14 08:12:20;;;;;;;0.00;0.00;;;;;;;;;;5048441;28;20052;-71
2022/06/14 08:14:52;;;;;;;0.00;0.00;;;;;;;;;;5052712;28;20057;-71
2022/06/14 08:17:24;;;;;;;0.47;0.43;;;;;;;;;;5051454;28;20040;-71
2022/06/14 08:19:56;;;;;;;0.10;0.10;;;;;;;;;;5052665;28;20063;-71
2022/06/14 08:22:29;;;;;;;0.05;0.05;;;;;;;;;;5052188;28;20495;-71
2022/06/14 08:25:01;;;;;;;0.00;0.00;;;;;;;;;;5052430;28;20048;-71
2022/06/14 08:27:34;;;;;;;0.00;0.00;;;;;;;;;;5037594;28;20497;-72
2022/06/14 08:30:06;;;;;;;0.00;0.00;;;;;;;;;;5032522;28;20049;-72
2022/06/14 08:32:36;;;;;;;0.10;0.10;;;;;;;;;;5032390;28;20405;-71
2022/06/14 08:35:12;;;;;;;0.00;0.00;;;;;;;;;;5032868;28;20140;-71
2022/06/14 08:37:43;;;;;;;0.25;0.25;;;;;;;;;;5031880;28;20057;-72
2022/06/14 08:40:21;;;;;;;0.17;0.08;;;;;;;;;;5033125;28;20042;-72
2022/06/14 08:42:51;;;;;;;1.80;0.38;;;;;;;;;;5033305;28;20099;-72
2022/06/14 08:45:27;;;;;;;0.20;0.20;;;;;;;;;;5032936;28;20045;-72
2022/06/14 08:48:06;;;;;;;0.00;0.00;;;;;;;;;;5033403;28;20045;-72
2022/06/14 08:50:53;;;;;;;0.00;0.00;;;;;;;;;;5033368;28;20084;-71
2022/06/14 08:53:40;;;;;;;0.28;0.28;;;;;;;;;;5071980;28;20060;-72
2022/06/14 08:56:18;;;;;;;0.00;0.00;;;;;;;;;;5071067;28;20048;-71
2022/06/14 08:59:14;;;;;;;0.47;0.43;;;;;;;;;;5071097;28;20083;-72
2022/06/14 09:01:55;;;;;;;0.28;0.28;;;;;;;;;;5053632;28;20108;-72
2022/06/14 09:04:35;;;;;;;0.00;0.00;;;;;;;;;;5031520;28;20045;-71
2022/06/14 09:07:12;;;;;;;0.00;0.00;;;;;;;;;;5030591;28;20497;-72
2022/06/14 09:10:01;;;;;;;0.20;0.20;;;;;;;;;;5032050;28;20141;-72
2022/06/14 09:12:46;;;;;;;0.00;0.00;;;;;;;;;;5047517;28;20127;-72
2022/06/14 09:15:36;;;;;;;0.00;0.00;;;;;;;;;;5051815;28;20057;-71
2022/06/14 09:18:22;;;;;;;0.00;0.00;;;;;;;;;;5047425;28;20378;-71
2022/06/14 09:21:05;;;;;;;0.00;0.00;;;;;;;;;;5019273;28;20068;-72
2022/06/14 09:23:45;;;;;;;2.10;0.68;;;;;;;;;;5031240;28;20049;-71
2022/06/14 09:26:36;;;;;;;0.45;0.45;;;;;;;;;;5030608;28;20042;-71
2022/06/14 09:29:22;;;;;;;0.00;0.00;;;;;;;;;;5030799;28;20056;-71
2022/06/14 09:31:59;;;;;;;0.00;0.00;;;;;;;;;;5031472;28;20049;-71
2022/06/14 09:34:39;;;;;;;0.00;0.00;;;;;;;;;;5031169;28;20049;-71
2022/06/14 09:37:12;;;;;;;;;;;;;;;;;;5037160;28;20044;-71
2022/06/14 09:39:55;;;;;;;0.15;0.15;;;;;;;;;;5051564;28;19940;-71
2022/06/14 09:42:37;;;;;;;0.20;0.20;;;;;;;;;;5048847;28;20080;-71
2022/06/14 09:45:23;;;;;;;0.03;0.03;;;;;;;;;;5051246;28;20075;-71
2022/06/14 09:48:13;;;;;;;0.20;0.20;;;;;;;;;;5060579;28;20496;-71
2022/06/14 09:50:59;;;;;;;0.00;0.00;;;;;;;;;;5036157;28;20395;-71
2022/06/14 09:53:53;;;;;;;0.17;0.17;;;;;;;;;;5035030;28;20049;-71
2022/06/14 09:56:41;;;;;;;0.25;0.25;;;;;;;;;;4974637;28;20569;-71
2022/06/14 09:59:24;;;;;;;0.00;0.00;;;;;;;;;;4957711;28;20098;-70
2022/06/14 10:02:01;;;;;;;0.00;0.00;;;;;;;;;;5051713;28;20084;-70
2022/06/14 10:04:37;;;;;;;0.00;0.00;;;;;;;;;;5054830;28;20053;-70
2022/06/14 10:07:15;;;;;;;0.00;0.00;;;;;;;;;;5054295;28;20456;-70
2022/06/14 10:09:53;;;;;;;0.00;0.00;;;;;;;;;;5045165;28;20095;-71
2022/06/14 10:12:33;;;;;;;0.00;0.00;;;;;;;;;;5051619;28;20544;-70
2022/06/14 10:15:06;;;;;;;0.00;0.00;;;;;;;;;;5055054;28;20095;-70
2022/06/14 10:17:42;;;;;;;0.00;0.00;;;;;;;;;;5054027;28;20443;-71
2022/06/14 10:20:44;;;;;;;0.13;0.13;;;;;;;;;;5054332;28;20048;-70
2022/06/14 10:23:26;;;;;;;0.00;0.00;;;;;;;;;;5054949;28;20084;-70
2022/06/14 10:28:56;;;;;;;0.00;0.00;;;;;;;;;;5033329;28;20061;-70
2022/06/14 10:31:33;;;;;;;0.10;0.10;;;;;;;;;;5034555;28;20103;-71
2022/06/14 10:34:06;;;;;;;0.00;0.00;;;;;;;;;;5034682;28;20057;-71
2022/06/14 10:36:43;;;;;;;0.00;0.00;;;;;;;;;;5033189;28;20489;-72
2022/06/14 10:39:23;;;;;;;0.38;0.22;;;;;;;;;;5034145;28;20061;-71
2022/06/14 10:41:54;;;;;;;0.00;0.00;;;;;;;;;;5049898;28;20572;-71
2022/06/14 10:44:29;;;;;;;0.00;0.00;;;;;;;;;;5038977;28;20065;-71
2022/06/14 10:47:02;;;;;;;0.00;0.00;;;;;;;;;;5033730;28;20041;-71
2022/06/14 10:49:44;;;;;;;0.00;0.00;;;;;;;;;;5034298;28;20100;-71
2022/06/14 10:52:24;;;;;;;0.17;0.17;;;;;;;;;;5062687;28;20044;-71
2022/06/14 10:55:01;;;;;;;0.00;0.00;;;;;;;;;;5046246;28;20164;-71
2022/06/14 10:57:38;;;;;;;0.60;0.52;;;;;;;;;;5053503;28;20049;-71
2022/06/14 11:00:09;;;;;;;0.00;0.00;;;;;;;;;;5048349;28;20081;-71
2022/06/14 11:02:55;;;;;;;0.00;0.00;;;;;;;;;;5033735;28;20107;-71
2022/06/14 11:05:29;;;;;;;0.00;0.00;;;;;;;;;;5033291;28;20053;-71
2022/06/14 11:08:04;;;;;;;0.03;0.03;;;;;;;;;;5033269;28;20771;-71
2022/06/14 11:10:32;;;;;;;;;;;;;;;;;;5034043;28;20559;-70
2022/06/14 11:13:06;;;;;;;0.10;0.10;;;;;;;;;;5033389;28;19964;-71
2022/06/14 11:15:37;;;;;;;0.00;0.00;;;;;;;;;;5033606;28;20587;-71
2022/06/14 11:18:27;;;;;;;0.05;0.05;;;;;;;;;;5031705;28;20061;-70
2022/06/14 11:21:04;;;;;;;0.00;0.00;;;;;;;;;;5027716;28;20128;-71
2022/06/14 11:23:35;;;;;;;0.20;0.20;;;;;;;;;;5033241;28;20058;-71
2022/06/14 11:26:09;;;;;;;2.28;0.75;;;;;;;;;;5031407;28;20493;-71
2022/06/14 11:28:42;;;;;;;0.28;0.28;;;;;;;;;;5013374;28;20084;-71
2022/06/14 11:31:13;;;;;;;0.00;0.00;;;;;;;;;;5013592;28;20085;-71
2022/06/14 11:33:51;;;;;;;0.00;0.00;;;;;;;;;;5013799;28;20050;-71
2022/06/14 11:36:25;;;;;;;1.40;1.05;;;;;;;;;;5012861;28;20050;-71
2022/06/14 11:38:53;;;;;;;;;;;;;;;;;;5013761;28;20049;-71
2022/06/14 11:41:25;;;;;;;0.00;0.00;;;;;;;;;;5013092;28;19972;-70
2022/06/14 11:43:59;;;;;;;0.00;0.00;;;;;;;;;;5013388;28;20054;-70
2022/06/14 11:46:28;;;;;;;;;;;;;;;;;;5013361;28;20050;-70
2022/06/14 11:48:58;;;;;;;0.00;0.00;;;;;;;;;;5012663;28;19922;-70
2022/06/14 11:51:32;;;;;;;0.00;0.00;;;;;;;;;;5019570;28;20045;-70
2022/06/14 11:54:10;;;;;;;0.00;0.00;;;;;;;;;;5033182;28;20053;-70
2022/06/14 11:56:42;;;;;;;0.00;0.00;;;;;;;;;;5032085;28;20497;-70
2022/06/14 11:59:21;;;;;;;0.00;0.00;;;;;;;;;;5032703;28;20059;-70
2022/06/14 12:01:57;;;;;;;0.03;0.03;;;;;;;;;;5033319;28;20045;-70
2022/06/14 12:04:35;;;;;;;0.00;0.00;;;;;;;;;;5032940;28;20061;-70
2022/06/14 12:07:10;;;;;;;0.00;0.00;;;;;;;;;;5032378;28;20049;-70
2022/06/14 12:09:58;;;;;;;0.35;0.10;;;;;;;;;;5033202;28;20093;-70
2022/06/14 12:12:30;;;;;;;0.32;0.32;;;;;;;;;;5050056;28;20072;-70
2022/06/14 12:15:01;;;;;;;0.00;0.00;;;;;;;;;;5053010;28;20112;-70
2022/06/14 12:17:32;;;;;;;0.00;0.00;;;;;;;;;;5053267;28;20068;-70
2022/06/14 12:20:05;;;;;;;0.00;0.00;;;;;;;;;;5053789;28;20052;-70
2022/06/14 12:22:39;;;;;;;0.00;0.00;;;;;;;;;;5053918;28;20053;-70
2022/06/14 12:27:57;;;;;;;0.10;0.10;;;;;;;;;;5032782;28;20061;-70
2022/06/14 12:30:27;;;;;;;0.00;0.00;;;;;;;;;;5032538;28;20049;-70
2022/06/14 12:33:00;;;;;;;0.32;0.32;;;;;;;;;;5033258;28;20160;-70
2022/06/14 12:35:30;;;;;;;0.00;0.00;;;;;;;;;;5032371;28;20060;-71
2022/06/14 12:38:01;;;;;;;0.30;0.30;;;;;;;;;;5031921;28;20058;-70
2022/06/14 12:40:33;;;;;;;0.00;0.00;;;;;;;;;;5031984;28;20045;-70
2022/06/14 12:43:04;;;;;;;0.13;0.00;;;;;;;;;;5041189;28;20100;-71
2022/06/14 12:45:35;;;;;;;0.00;0.00;;;;;;;;;;5032632;28;20058;-71
2022/06/14 12:48:11;;;;;;;0.25;0.25;;;;;;;;;;5032012;28;20053;-70
2022/06/14 12:50:42;;;;;;;0.10;0.10;;;;;;;;;;5033406;28;20125;-70
2022/06/14 12:53:16;;;;;;;0.20;0.20;;;;;;;;;;5044456;28;20132;-71
2022/06/14 12:55:48;;;;;;;0.00;0.00;;;;;;;;;;5045190;28;20421;-70
2022/06/14 12:58:25;;;;;;;0.00;0.00;;;;;;;;;;5051004;28;20056;-70
2022/06/14 13:00:56;;;;;;;0.00;0.00;;;;;;;;;;5014519;28;20085;-71
2022/06/14 13:03:28;;;;;;;0.00;0.00;;;;;;;;;;5012266;28;20054;-70
2022/06/14 13:06:00;;;;;;;0.00;0.00;;;;;;;;;;5011995;28;20125;-71
2022/06/14 13:08:33;;;;;;;0.00;0.00;;;;;;;;;;5011050;28;20116;-71
2022/06/14 13:11:06;;;;;;;0.15;0.15;;;;;;;;;;5017205;28;20113;-71
2022/06/14 13:13:56;;;;;;;0.00;0.00;;;;;;;;;;5031858;28;20080;-71
2022/06/14 13:16:29;;;;;;;0.00;0.00;;;;;;;;;;5024361;28;20493;-71
2022/06/14 13:19:03;;;;;;;0.00;0.00;;;;;;;;;;5030236;28;20053;-71
2022/06/14 13:21:36;;;;;;;0.00;0.00;;;;;;;;;;5038979;28;20037;-70
2022/06/14 13:24:17;;;;;;;0.00;0.00;;;;;;;;;;5051559;28;20088;-71
2022/06/14 13:26:58;;;;;;;0.28;0.28;;;;;;;;;;5036000;28;20053;-71
2022/06/14 13:29:33;;;;;;;0.00;0.00;;;;;;;;;;5012042;28;20133;-70
2022/06/14 13:32:09;;;;;;;0.00;0.00;;;;;;;;;;5024538;28;20045;-71
2022/06/14 13:34:46;;;;;;;0.00;0.00;;;;;;;;;;5014689;28;20049;-70
2022/06/14 13:37:19;;;;;;;0.00;0.00;;;;;;;;;;5010905;28;20084;-71
2022/06/14 13:39:52;;;;;;;0.20;0.10;;;;;;;;;;5011454;28;20054;-71
2022/06/14 13:42:24;;;;;;;0.00;0.00;;;;;;;;;;5012032;28;20077;-71
2022/06/14 13:44:56;;;;;;;0.00;0.00;;;;;;;;;;5011456;28;20049;-71
2022/06/14 13:47:28;;;;;;;0.00;0.00;;;;;;;;;;5010166;28;20496;-71
2022/06/14 13:50:01;;;;;;;0.10;0.10;;;;;;;;;;5011650;28;20105;-71
2022/06/14 13:52:32;;;;;;;0.00;0.00;;;;;;;;;;5029962;28;20440;-71
2022/06/14 13:55:08;;;;;;;0.00;0.00;;;;;;;;;;5071032;28;20076;-71
2022/06/14 13:57:39;;;;;;;0.20;0.20;;;;;;;;;;5067875;28;20041;-71
2022/06/14 14:00:17;;;;;;;0.03;0.03;;;;;;;;;;5049362;28;20057;-71
2022/06/14 14:02:48;;;;;;;0.13;0.13;;;;;;;;;;5050745;28;20041;-70
2022/06/14 14:05:20;;;;;;;0.10;0.10;;;;;;;;;;5050831;28;20049;-71
2022/06/14 14:07:52;;;;;;;0.28;0.28;;;;;;;;;;5040025;28;20049;-71
2022/06/14 14:10:29;;;;;;;0.00;0.00;;;;;;;;;;5030714;28;20041;-71
2022/06/14 14:13:02;;;;;;;0.00;0.00;;;;;;;;;;5030559;28;20387;-71
2022/06/14 14:15:34;;;;;;;0.00;0.00;;;;;;;;;;5056169;28;20412;-71
2022/06/14 14:18:08;;;;;;;0.22;0.22;;;;;;;;;;5030293;28;20053;-72
2022/06/14 14:20:42;;;;;;;0.10;0.10;;;;;;;;;;5030464;28;20049;-71
2022/06/14 14:23:16;;;;;;;0.00;0.00;;;;;;;;;;5030762;28;20096;-71
2022/06/14 14:25:49;;;;;;;0.10;0.10;;;;;;;;;;5030446;28;20049;-71
2022/06/14 14:28:22;;;;;;;0.00;0.00;;;;;;;;;;5029962;28;20049;-71
2022/06/14 14:30:57;;;;;;;0.00;0.00;;;;;;;;;;5030655;28;20084;-71
2022/06/14 14:33:30;;;;;;;0.88;0.88;;;;;;;;;;5030697;28;20107;-71
2022/06/14 14:36:00;;;;;;;0.00;0.00;;;;;;;;;;5030776;28;20061;-70
2022/06/14 14:38:30;;;;;;;0.00;0.00;;;;;;;;;;5030043;28;20058;-70
2022/06/14 14:43:49;;;;;;;0.00;0.00;;;;;;;;;;5030920;28;20148;-70
2022/06/14 14:46:23;;;;;;;0.10;0.10;;;;;;;;;;5030518;28;20405;-70
2022/06/14 14:48:56;;;;;;;0.00;0.00;;;;;;;;;;5034215;28;20057;-70
2022/06/14 14:51:29;;;;;;;0.00;0.00;;;;;;;;;;5041924;28;20040;-71
2022/06/14 14:54:02;;;;;;;0.00;0.00;;;;;;;;;;5054033;28;20049;-70
2022/06/14 14:56:34;;;;;;;0.10;0.10;;;;;;;;;;5053984;28;20132;-70
2022/06/14 14:59:04;;;;;;;0.00;0.00;;;;;;;;;;5029930;28;20118;-70
2022/06/14 15:07:17;;;;;;;0.00;0.00;;;;;;;;;;5013475;28;20049;-70
2022/06/14 15:09:49;;;;;;;0.00;0.00;;;;;;;;;;5014154;28;20054;-70
2022/06/14 15:12:20;;;;;;;0.00;0.00;;;;;;;;;;5029545;28;20347;-70
2022/06/14 15:15:03;;;;;;;0.00;0.00;;;;;;;;;;5032201;28;20112;-71
2022/06/14 15:19:54;;;;;;;0.10;0.10;;;;;;;;;;5013327;28;20054;-70
2022/06/14 15:20:31;;;;;;;0.00;0.00;;;;;;;;;;5013895;28;20086;-70
2022/06/14 15:23:00;;;;;;;0.00;0.00;;;;;;;;;;5013143;28;20080;-70
2022/06/14 15:25:31;;;;;;;0.00;0.00;;;;;;;;;;5013397;28;20050;-70
2022/06/14 15:28:20;;;;;;;0.00;0.00;;;;;;;;;;5012826;28;20133;-71
2022/06/14 15:30:50;;;;;;;0.10;0.10;;;;;;;;;;5013652;28;20053;-71
2022/06/14 15:33:23;;;;;;;0.10;0.10;;;;;;;;;;5013568;28;20100;-71
2022/06/14 15:35:53;;;;;;;0.00;0.00;;;;;;;;;;5013760;28;20050;-71
2022/06/14 15:38:23;;;;;;;0.10;0.10;;;;;;;;;;5013302;28;20065;-71
2022/06/14 15:41:05;;;;;;;0.10;0.10;;;;;;;;;;5017941;28;20053;-71
2022/06/14 15:43:35;;;;;;;0.00;0.00;;;;;;;;;;5053098;28;20095;-71